sensor_id;sensor_type;location;lat;lon;timestamp;P1;durP1;ratioP1;P2;durP2;ratioP2
22040;SDS011;11184;52.444;13.578;2023-05-29T00:01:35;10.40;;;4.70;;
22040;SDS011;11184;52.444;13.578;2023-05-29T00:04:21;11.00;;;4.20;;
22040;SDS011;11184;52.444;13.578;2023-05-29T00:07:06;13.88;;;4.63;;
22040;SDS011;11184;52.444;13.578;2023-05-29T00:09:50;11.95;;;5.82;;
22040;SDS011;11184;52.444;13.578;2023-05-29T00:12:35;11.98;;;4.30;;
22040;SDS011;11184;52.444;13.578;2023-05-29T00:15:23;12.32;;;5.25;;
22040;SDS011;11184;52.444;13.578;2023-05-29T00:18:08;8.48;;;5.00;;
22040;SDS011;11184;52.444;13.578;2023-05-29T00:20:52;5.00;;;3.80;;
22040;SDS011;11184;52.444;13.578;2023-05-29T00:23:37;7.93;;;4.28;;
22040;SDS011;11184;52.444;13.578;2023-05-29T00:26:22;8.00;;;4.40;;
22040;SDS011;11184;52.444;13.578;2023-05-29T00:29:06;10.05;;;4.10;;
22040;SDS011;11184;52.444;13.578;2023-05-29T00:31:51;13.48;;;4.43;;
22040;SDS011;11184;52.444;13.578;2023-05-29T00:34:37;7.30;;;4.65;;
22040;SDS011;11184;52.444;13.578;2023-05-29T00:37:21;6.90;;;4.93;;
22040;SDS011;11184;52.444;13.578;2023-05-29T00:40:06;13.15;;;5.53;;
22040;SDS011;11184;52.444;13.578;2023-05-29T00:42:51;9.57;;;5.15;;
22040;SDS011;11184;52.444;13.578;2023-05-29T00:45:36;20.35;;;5.60;;
22040;SDS011;11184;52.444;13.578;2023-05-29T00:48:20;6.13;;;4.70;;
22040;SDS011;11184;52.444;13.578;2023-05-29T00:51:05;10.95;;;5.50;;
22040;SDS011;11184;52.444;13.578;2023-05-29T00:53:50;8.77;;;6.22;;
22040;SDS011;11184;52.444;13.578;2023-05-29T00:56:35;7.80;;;6.13;;
22040;SDS011;11184;52.444;13.578;2023-05-29T00:59:19;12.65;;;5.70;;
22040;SDS011;11184;52.444;13.578;2023-05-29T01:02:05;11.13;;;5.63;;
22040;SDS011;11184;52.444;13.578;2023-05-29T01:04:51;10.15;;;5.55;;
22040;SDS011;11184;52.444;13.578;2023-05-29T01:07:38;7.72;;;4.90;;
22040;SDS011;11184;52.444;13.578;2023-05-29T01:10:22;11.07;;;5.30;;
22040;SDS011;11184;52.444;13.578;2023-05-29T01:13:08;9.50;;;4.72;;
22040;SDS011;11184;52.444;13.578;2023-05-29T01:16:01;9.00;;;5.65;;
22040;SDS011;11184;52.444;13.578;2023-05-29T01:18:54;9.23;;;4.38;;
22040;SDS011;11184;52.444;13.578;2023-05-29T01:21:52;8.18;;;5.15;;
22040;SDS011;11184;52.444;13.578;2023-05-29T01:27:25;6.85;;;4.75;;
22040;SDS011;11184;52.444;13.578;2023-05-29T01:30:12;10.75;;;4.97;;
22040;SDS011;11184;52.444;13.578;2023-05-29T01:32:56;8.57;;;4.97;;
22040;SDS011;11184;52.444;13.578;2023-05-29T01:35:41;11.23;;;5.32;;
22040;SDS011;11184;52.444;13.578;2023-05-29T01:38:26;12.43;;;4.78;;
22040;SDS011;11184;52.444;13.578;2023-05-29T01:41:10;11.40;;;4.97;;
22040;SDS011;11184;52.444;13.578;2023-05-29T01:43:56;11.50;;;4.82;;
22040;SDS011;11184;52.444;13.578;2023-05-29T01:46:41;9.55;;;4.22;;
22040;SDS011;11184;52.444;13.578;2023-05-29T01:49:27;6.45;;;5.30;;
22040;SDS011;11184;52.444;13.578;2023-05-29T01:52:13;10.43;;;4.78;;
22040;SDS011;11184;52.444;13.578;2023-05-29T01:54:57;9.20;;;4.85;;
22040;SDS011;11184;52.444;13.578;2023-05-29T01:57:42;11.02;;;4.68;;
22040;SDS011;11184;52.444;13.578;2023-05-29T02:00:27;13.60;;;5.70;;
22040;SDS011;11184;52.444;13.578;2023-05-29T02:03:13;7.57;;;4.60;;
22040;SDS011;11184;52.444;13.578;2023-05-29T02:05:58;9.63;;;4.72;;
22040;SDS011;11184;52.444;13.578;2023-05-29T02:08:43;9.50;;;4.20;;
22040;SDS011;11184;52.444;13.578;2023-05-29T02:11:27;6.28;;;5.03;;
22040;SDS011;11184;52.444;13.578;2023-05-29T02:14:12;8.23;;;4.13;;
22040;SDS011;11184;52.444;13.578;2023-05-29T02:16:56;6.20;;;3.58;;
22040;SDS011;11184;52.444;13.578;2023-05-29T02:19:41;8.80;;;4.65;;
22040;SDS011;11184;52.444;13.578;2023-05-29T02:22:26;6.28;;;4.30;;
22040;SDS011;11184;52.444;13.578;2023-05-29T02:25:11;7.85;;;4.93;;
22040;SDS011;11184;52.444;13.578;2023-05-29T02:27:55;7.05;;;4.55;;
22040;SDS011;11184;52.444;13.578;2023-05-29T02:30:40;13.23;;;4.45;;
22040;SDS011;11184;52.444;13.578;2023-05-29T02:33:25;9.85;;;4.55;;
22040;SDS011;11184;52.444;13.578;2023-05-29T02:36:09;7.70;;;4.40;;
22040;SDS011;11184;52.444;13.578;2023-05-29T02:38:55;9.32;;;4.60;;
22040;SDS011;11184;52.444;13.578;2023-05-29T02:41:40;11.70;;;4.60;;
22040;SDS011;11184;52.444;13.578;2023-05-29T02:44:24;9.88;;;4.57;;
22040;SDS011;11184;52.444;13.578;2023-05-29T02:47:09;13.77;;;5.78;;
22040;SDS011;11184;52.444;13.578;2023-05-29T02:49:54;7.78;;;4.40;;
22040;SDS011;11184;52.444;13.578;2023-05-29T02:52:38;13.48;;;4.25;;
22040;SDS011;11184;52.444;13.578;2023-05-29T02:55:23;6.53;;;4.32;;
22040;SDS011;11184;52.444;13.578;2023-05-29T02:58:08;6.45;;;4.63;;
22040;SDS011;11184;52.444;13.578;2023-05-29T03:00:55;6.40;;;3.97;;
22040;SDS011;11184;52.444;13.578;2023-05-29T03:03:39;7.07;;;5.03;;
22040;SDS011;11184;52.444;13.578;2023-05-29T03:06:24;7.93;;;4.05;;
22040;SDS011;11184;52.444;13.578;2023-05-29T03:09:09;9.68;;;4.60;;
22040;SDS011;11184;52.444;13.578;2023-05-29T03:11:54;8.18;;;4.25;;
22040;SDS011;11184;52.444;13.578;2023-05-29T03:14:38;7.20;;;3.63;;
22040;SDS011;11184;52.444;13.578;2023-05-29T03:17:23;7.75;;;4.43;;
22040;SDS011;11184;52.444;13.578;2023-05-29T03:20:09;8.68;;;4.80;;
22040;SDS011;11184;52.444;13.578;2023-05-29T03:22:54;10.85;;;4.18;;
22040;SDS011;11184;52.444;13.578;2023-05-29T03:25:39;7.47;;;4.93;;
22040;SDS011;11184;52.444;13.578;2023-05-29T03:28:23;6.80;;;3.42;;
22040;SDS011;11184;52.444;13.578;2023-05-29T03:31:08;9.73;;;4.95;;
22040;SDS011;11184;52.444;13.578;2023-05-29T03:33:53;8.60;;;4.65;;
22040;SDS011;11184;52.444;13.578;2023-05-29T03:36:37;11.57;;;5.40;;
22040;SDS011;11184;52.444;13.578;2023-05-29T03:39:22;11.27;;;4.63;;
22040;SDS011;11184;52.444;13.578;2023-05-29T03:42:06;10.52;;;5.10;;
22040;SDS011;11184;52.444;13.578;2023-05-29T03:44:51;9.82;;;4.82;;
22040;SDS011;11184;52.444;13.578;2023-05-29T03:47:36;15.27;;;5.43;;
22040;SDS011;11184;52.444;13.578;2023-05-29T03:50:20;11.10;;;4.60;;
22040;SDS011;11184;52.444;13.578;2023-05-29T03:53:05;12.68;;;4.60;;
22040;SDS011;11184;52.444;13.578;2023-05-29T03:55:50;8.93;;;4.07;;
22040;SDS011;11184;52.444;13.578;2023-05-29T03:58:34;7.55;;;3.85;;
22040;SDS011;11184;52.444;13.578;2023-05-29T04:01:20;9.13;;;3.90;;
22040;SDS011;11184;52.444;13.578;2023-05-29T04:04:05;5.55;;;4.72;;
22040;SDS011;11184;52.444;13.578;2023-05-29T04:06:49;6.97;;;4.60;;
22040;SDS011;11184;52.444;13.578;2023-05-29T04:09:34;7.50;;;4.38;;
22040;SDS011;11184;52.444;13.578;2023-05-29T04:12:18;9.52;;;4.63;;
22040;SDS011;11184;52.444;13.578;2023-05-29T04:15:03;6.03;;;4.15;;
22040;SDS011;11184;52.444;13.578;2023-05-29T04:17:48;6.60;;;3.00;;
22040;SDS011;11184;52.444;13.578;2023-05-29T04:20:33;7.03;;;3.78;;
22040;SDS011;11184;52.444;13.578;2023-05-29T04:23:17;7.32;;;4.35;;
22040;SDS011;11184;52.444;13.578;2023-05-29T04:26:02;7.38;;;4.05;;
22040;SDS011;11184;52.444;13.578;2023-05-29T04:28:48;10.07;;;4.28;;
22040;SDS011;11184;52.444;13.578;2023-05-29T04:31:35;12.82;;;4.25;;
22040;SDS011;11184;52.444;13.578;2023-05-29T04:34:20;12.43;;;4.68;;
22040;SDS011;11184;52.444;13.578;2023-05-29T04:37:05;7.30;;;3.80;;
22040;SDS011;11184;52.444;13.578;2023-05-29T04:39:50;8.55;;;4.05;;
22040;SDS011;11184;52.444;13.578;2023-05-29T04:42:38;5.55;;;3.38;;
22040;SDS011;11184;52.444;13.578;2023-05-29T04:45:28;6.20;;;4.03;;
22040;SDS011;11184;52.444;13.578;2023-05-29T04:48:13;11.90;;;3.83;;
22040;SDS011;11184;52.444;13.578;2023-05-29T04:50:58;6.03;;;3.03;;
22040;SDS011;11184;52.444;13.578;2023-05-29T04:53:43;4.88;;;4.03;;
22040;SDS011;11184;52.444;13.578;2023-05-29T04:56:27;7.07;;;4.07;;
22040;SDS011;11184;52.444;13.578;2023-05-29T04:59:12;5.55;;;3.13;;
22040;SDS011;11184;52.444;13.578;2023-05-29T05:01:56;8.07;;;3.30;;
22040;SDS011;11184;52.444;13.578;2023-05-29T05:04:41;6.97;;;3.05;;
22040;SDS011;11184;52.444;13.578;2023-05-29T05:07:26;3.78;;;2.55;;
22040;SDS011;11184;52.444;13.578;2023-05-29T05:10:10;6.47;;;2.50;;
22040;SDS011;11184;52.444;13.578;2023-05-29T05:12:55;8.95;;;3.33;;
22040;SDS011;11184;52.444;13.578;2023-05-29T05:15:40;4.40;;;2.90;;
22040;SDS011;11184;52.444;13.578;2023-05-29T05:18:25;5.57;;;2.53;;
22040;SDS011;11184;52.444;13.578;2023-05-29T05:21:09;5.30;;;2.35;;
22040;SDS011;11184;52.444;13.578;2023-05-29T05:23:55;3.30;;;2.38;;
22040;SDS011;11184;52.444;13.578;2023-05-29T05:26:39;9.05;;;1.95;;
22040;SDS011;11184;52.444;13.578;2023-05-29T05:29:24;3.25;;;2.45;;
22040;SDS011;11184;52.444;13.578;2023-05-29T05:32:09;3.33;;;2.47;;
22040;SDS011;11184;52.444;13.578;2023-05-29T05:34:53;4.50;;;1.92;;
22040;SDS011;11184;52.444;13.578;2023-05-29T05:37:38;4.65;;;2.17;;
22040;SDS011;11184;52.444;13.578;2023-05-29T05:40:24;4.15;;;1.98;;
22040;SDS011;11184;52.444;13.578;2023-05-29T05:43:09;4.20;;;2.10;;
22040;SDS011;11184;52.444;13.578;2023-05-29T05:45:54;4.93;;;2.17;;
22040;SDS011;11184;52.444;13.578;2023-05-29T05:48:39;3.15;;;2.10;;
22040;SDS011;11184;52.444;13.578;2023-05-29T05:51:24;2.40;;;1.83;;
22040;SDS011;11184;52.444;13.578;2023-05-29T05:54:10;4.80;;;2.63;;
22040;SDS011;11184;52.444;13.578;2023-05-29T05:56:54;4.15;;;1.58;;
22040;SDS011;11184;52.444;13.578;2023-05-29T05:59:39;4.97;;;2.15;;
22040;SDS011;11184;52.444;13.578;2023-05-29T06:02:24;4.30;;;1.98;;
22040;SDS011;11184;52.444;13.578;2023-05-29T06:05:09;4.50;;;1.92;;
22040;SDS011;11184;52.444;13.578;2023-05-29T06:07:54;2.28;;;1.67;;
22040;SDS011;11184;52.444;13.578;2023-05-29T06:10:39;2.83;;;1.52;;
22040;SDS011;11184;52.444;13.578;2023-05-29T06:13:23;2.80;;;1.80;;
22040;SDS011;11184;52.444;13.578;2023-05-29T06:16:08;4.00;;;1.60;;
22040;SDS011;11184;52.444;13.578;2023-05-29T06:18:53;4.07;;;1.60;;
22040;SDS011;11184;52.444;13.578;2023-05-29T06:21:38;3.58;;;1.38;;
22040;SDS011;11184;52.444;13.578;2023-05-29T06:24:23;1.63;;;1.35;;
22040;SDS011;11184;52.444;13.578;2023-05-29T06:27:08;2.13;;;1.65;;
22040;SDS011;11184;52.444;13.578;2023-05-29T06:29:53;3.05;;;1.80;;
22040;SDS011;11184;52.444;13.578;2023-05-29T06:32:38;3.78;;;1.13;;
22040;SDS011;11184;52.444;13.578;2023-05-29T06:35:22;3.03;;;1.73;;
22040;SDS011;11184;52.444;13.578;2023-05-29T06:38:07;2.60;;;1.17;;
22040;SDS011;11184;52.444;13.578;2023-05-29T06:40:51;4.38;;;1.75;;
22040;SDS011;11184;52.444;13.578;2023-05-29T06:43:36;3.50;;;1.42;;
22040;SDS011;11184;52.444;13.578;2023-05-29T06:46:21;3.42;;;1.42;;
22040;SDS011;11184;52.444;13.578;2023-05-29T06:49:05;3.50;;;1.55;;
22040;SDS011;11184;52.444;13.578;2023-05-29T06:51:50;2.25;;;1.42;;
22040;SDS011;11184;52.444;13.578;2023-05-29T06:54:35;2.63;;;1.35;;
22040;SDS011;11184;52.444;13.578;2023-05-29T06:57:19;2.53;;;1.50;;
22040;SDS011;11184;52.444;13.578;2023-05-29T07:00:04;1.92;;;1.20;;
22040;SDS011;11184;52.444;13.578;2023-05-29T07:02:50;4.03;;;1.60;;
22040;SDS011;11184;52.444;13.578;2023-05-29T07:05:34;3.40;;;1.40;;
22040;SDS011;11184;52.444;13.578;2023-05-29T07:08:19;4.18;;;1.48;;
22040;SDS011;11184;52.444;13.578;2023-05-29T07:11:03;2.13;;;1.30;;
22040;SDS011;11184;52.444;13.578;2023-05-29T07:13:48;2.00;;;1.65;;
22040;SDS011;11184;52.444;13.578;2023-05-29T07:16:32;2.90;;;1.88;;
22040;SDS011;11184;52.444;13.578;2023-05-29T07:19:17;2.60;;;1.20;;
22040;SDS011;11184;52.444;13.578;2023-05-29T07:22:02;4.25;;;1.80;;
22040;SDS011;11184;52.444;13.578;2023-05-29T07:24:46;1.88;;;1.10;;
22040;SDS011;11184;52.444;13.578;2023-05-29T07:27:31;5.07;;;1.40;;
22040;SDS011;11184;52.444;13.578;2023-05-29T07:30:16;2.13;;;1.27;;
22040;SDS011;11184;52.444;13.578;2023-05-29T07:33:01;3.10;;;1.40;;
22040;SDS011;11184;52.444;13.578;2023-05-29T07:35:46;4.03;;;1.50;;
22040;SDS011;11184;52.444;13.578;2023-05-29T07:38:30;3.40;;;1.50;;
22040;SDS011;11184;52.444;13.578;2023-05-29T07:41:15;2.20;;;0.90;;
22040;SDS011;11184;52.444;13.578;2023-05-29T07:44:01;1.77;;;1.20;;
22040;SDS011;11184;52.444;13.578;2023-05-29T07:46:45;6.53;;;1.63;;
22040;SDS011;11184;52.444;13.578;2023-05-29T07:49:30;3.00;;;1.50;;
22040;SDS011;11184;52.444;13.578;2023-05-29T07:52:15;3.10;;;1.23;;
22040;SDS011;11184;52.444;13.578;2023-05-29T07:54:59;3.60;;;1.80;;
22040;SDS011;11184;52.444;13.578;2023-05-29T07:57:45;1.75;;;1.35;;
22040;SDS011;11184;52.444;13.578;2023-05-29T08:00:30;2.15;;;1.33;;
22040;SDS011;11184;52.444;13.578;2023-05-29T08:03:15;5.40;;;1.73;;
22040;SDS011;11184;52.444;13.578;2023-05-29T08:05:59;1.70;;;1.48;;
22040;SDS011;11184;52.444;13.578;2023-05-29T08:08:44;2.70;;;1.52;;
22040;SDS011;11184;52.444;13.578;2023-05-29T08:11:29;3.22;;;1.70;;
22040;SDS011;11184;52.444;13.578;2023-05-29T08:14:14;3.17;;;1.33;;
22040;SDS011;11184;52.444;13.578;2023-05-29T08:16:59;4.57;;;1.58;;
22040;SDS011;11184;52.444;13.578;2023-05-29T08:19:43;3.13;;;1.48;;
22040;SDS011;11184;52.444;13.578;2023-05-29T08:22:29;4.00;;;1.38;;
22040;SDS011;11184;52.444;13.578;2023-05-29T08:25:14;3.53;;;1.80;;
22040;SDS011;11184;52.444;13.578;2023-05-29T08:27:58;2.88;;;1.38;;
22040;SDS011;11184;52.444;13.578;2023-05-29T08:30:43;4.38;;;1.60;;
22040;SDS011;11184;52.444;13.578;2023-05-29T08:33:27;3.05;;;1.17;;
22040;SDS011;11184;52.444;13.578;2023-05-29T08:36:14;5.55;;;1.70;;
22040;SDS011;11184;52.444;13.578;2023-05-29T08:38:59;3.60;;;2.20;;
22040;SDS011;11184;52.444;13.578;2023-05-29T08:44:31;3.38;;;1.90;;
22040;SDS011;11184;52.444;13.578;2023-05-29T08:47:16;4.03;;;2.60;;
22040;SDS011;11184;52.444;13.578;2023-05-29T08:50:04;3.53;;;1.90;;
22040;SDS011;11184;52.444;13.578;2023-05-29T08:52:50;3.50;;;1.40;;
22040;SDS011;11184;52.444;13.578;2023-05-29T08:55:34;2.95;;;1.75;;
22040;SDS011;11184;52.444;13.578;2023-05-29T08:58:19;6.40;;;2.17;;
22040;SDS011;11184;52.444;13.578;2023-05-29T09:01:04;2.50;;;2.28;;
22040;SDS011;11184;52.444;13.578;2023-05-29T09:03:50;2.03;;;1.45;;
22040;SDS011;11184;52.444;13.578;2023-05-29T09:06:34;2.47;;;1.35;;
22040;SDS011;11184;52.444;13.578;2023-05-29T09:09:19;3.08;;;2.17;;
22040;SDS011;11184;52.444;13.578;2023-05-29T09:12:04;4.03;;;1.90;;
22040;SDS011;11184;52.444;13.578;2023-05-29T09:14:49;4.00;;;1.70;;
22040;SDS011;11184;52.444;13.578;2023-05-29T09:17:34;5.22;;;2.50;;
22040;SDS011;11184;52.444;13.578;2023-05-29T09:20:19;2.88;;;2.13;;
22040;SDS011;11184;52.444;13.578;2023-05-29T09:23:07;4.13;;;2.20;;
22040;SDS011;11184;52.444;13.578;2023-05-29T09:25:52;5.72;;;1.88;;
22040;SDS011;11184;52.444;13.578;2023-05-29T09:28:37;3.28;;;1.48;;
22040;SDS011;11184;52.444;13.578;2023-05-29T09:31:22;2.35;;;1.50;;
22040;SDS011;11184;52.444;13.578;2023-05-29T09:34:06;3.20;;;2.20;;
22040;SDS011;11184;52.444;13.578;2023-05-29T09:36:51;5.28;;;2.38;;
22040;SDS011;11184;52.444;13.578;2023-05-29T09:39:46;3.28;;;1.77;;
22040;SDS011;11184;52.444;13.578;2023-05-29T09:42:31;5.93;;;2.55;;
22040;SDS011;11184;52.444;13.578;2023-05-29T09:45:18;7.90;;;2.63;;
22040;SDS011;11184;52.444;13.578;2023-05-29T09:48:12;3.58;;;2.20;;
22040;SDS011;11184;52.444;13.578;2023-05-29T09:50:57;3.67;;;2.20;;
22040;SDS011;11184;52.444;13.578;2023-05-29T09:53:44;5.30;;;2.55;;
22040;SDS011;11184;52.444;13.578;2023-05-29T09:56:30;3.40;;;2.22;;
22040;SDS011;11184;52.444;13.578;2023-05-29T09:59:16;2.90;;;1.90;;
22040;SDS011;11184;52.444;13.578;2023-05-29T10:02:02;3.65;;;2.63;;
22040;SDS011;11184;52.444;13.578;2023-05-29T10:04:48;4.63;;;2.42;;
22040;SDS011;11184;52.444;13.578;2023-05-29T10:07:34;4.55;;;2.05;;
22040;SDS011;11184;52.444;13.578;2023-05-29T10:10:19;3.10;;;2.35;;
22040;SDS011;11184;52.444;13.578;2023-05-29T10:13:05;2.22;;;1.90;;
22040;SDS011;11184;52.444;13.578;2023-05-29T10:15:50;4.95;;;2.08;;
22040;SDS011;11184;52.444;13.578;2023-05-29T10:18:38;4.40;;;2.50;;
22040;SDS011;11184;52.444;13.578;2023-05-29T10:21:24;2.95;;;2.22;;
22040;SDS011;11184;52.444;13.578;2023-05-29T10:24:11;3.92;;;1.85;;
22040;SDS011;11184;52.444;13.578;2023-05-29T10:26:56;3.75;;;1.75;;
22040;SDS011;11184;52.444;13.578;2023-05-29T10:36:13;3.35;;;1.75;;
22040;SDS011;11184;52.444;13.578;2023-05-29T10:38:58;3.92;;;2.25;;
22040;SDS011;11184;52.444;13.578;2023-05-29T10:41:44;4.70;;;1.80;;
22040;SDS011;11184;52.444;13.578;2023-05-29T10:44:37;2.75;;;1.90;;
22040;SDS011;11184;52.444;13.578;2023-05-29T10:47:25;6.88;;;2.40;;
22040;SDS011;11184;52.444;13.578;2023-05-29T10:50:09;4.32;;;1.98;;
22040;SDS011;11184;52.444;13.578;2023-05-29T10:52:54;2.50;;;1.98;;
22040;SDS011;11184;52.444;13.578;2023-05-29T10:55:39;4.20;;;2.35;;
22040;SDS011;11184;52.444;13.578;2023-05-29T10:58:25;5.72;;;2.47;;
22040;SDS011;11184;52.444;13.578;2023-05-29T11:01:09;2.58;;;1.83;;
22040;SDS011;11184;52.444;13.578;2023-05-29T11:06:59;2.90;;;2.28;;
22040;SDS011;11184;52.444;13.578;2023-05-29T11:09:44;5.35;;;1.80;;
22040;SDS011;11184;52.444;13.578;2023-05-29T11:12:33;2.83;;;1.80;;
22040;SDS011;11184;52.444;13.578;2023-05-29T11:15:19;3.38;;;1.73;;
22040;SDS011;11184;52.444;13.578;2023-05-29T11:18:07;3.33;;;2.38;;
22040;SDS011;11184;52.444;13.578;2023-05-29T11:20:56;2.70;;;1.73;;
22040;SDS011;11184;52.444;13.578;2023-05-29T11:23:41;4.15;;;2.15;;
22040;SDS011;11184;52.444;13.578;2023-05-29T11:26:27;2.63;;;2.10;;
22040;SDS011;11184;52.444;13.578;2023-05-29T11:29:12;2.92;;;2.25;;
22040;SDS011;11184;52.444;13.578;2023-05-29T11:32:03;3.20;;;2.20;;
22040;SDS011;11184;52.444;13.578;2023-05-29T11:34:48;2.70;;;1.85;;
22040;SDS011;11184;52.444;13.578;2023-05-29T11:37:35;4.47;;;2.17;;
22040;SDS011;11184;52.444;13.578;2023-05-29T11:40:19;8.43;;;2.25;;
22040;SDS011;11184;52.444;13.578;2023-05-29T11:43:04;2.63;;;2.00;;
22040;SDS011;11184;52.444;13.578;2023-05-29T11:45:49;4.65;;;1.95;;
22040;SDS011;11184;52.444;13.578;2023-05-29T11:48:33;2.80;;;2.33;;
22040;SDS011;11184;52.444;13.578;2023-05-29T11:51:18;4.35;;;2.10;;
22040;SDS011;11184;52.444;13.578;2023-05-29T11:54:02;4.25;;;1.95;;
22040;SDS011;11184;52.444;13.578;2023-05-29T11:56:47;2.85;;;1.52;;
22040;SDS011;11184;52.444;13.578;2023-05-29T11:59:32;3.80;;;2.10;;
22040;SDS011;11184;52.444;13.578;2023-05-29T12:02:17;4.28;;;2.40;;
22040;SDS011;11184;52.444;13.578;2023-05-29T12:05:03;5.18;;;2.17;;
22040;SDS011;11184;52.444;13.578;2023-05-29T12:07:49;4.00;;;2.20;;
22040;SDS011;11184;52.444;13.578;2023-05-29T12:10:34;2.13;;;1.92;;
22040;SDS011;11184;52.444;13.578;2023-05-29T12:13:18;3.85;;;1.73;;
22040;SDS011;11184;52.444;13.578;2023-05-29T12:16:04;2.25;;;1.48;;
22040;SDS011;11184;52.444;13.578;2023-05-29T12:18:49;4.72;;;1.98;;
22040;SDS011;11184;52.444;13.578;2023-05-29T12:21:34;4.00;;;1.92;;
22040;SDS011;11184;52.444;13.578;2023-05-29T12:24:19;4.95;;;2.13;;
22040;SDS011;11184;52.444;13.578;2023-05-29T12:27:04;7.32;;;2.42;;
22040;SDS011;11184;52.444;13.578;2023-05-29T12:29:59;6.50;;;2.17;;
22040;SDS011;11184;52.444;13.578;2023-05-29T12:32:45;5.47;;;2.40;;
22040;SDS011;11184;52.444;13.578;2023-05-29T12:35:30;2.05;;;1.58;;
22040;SDS011;11184;52.444;13.578;2023-05-29T12:38:15;2.95;;;2.25;;
22040;SDS011;11184;52.444;13.578;2023-05-29T12:41:04;4.38;;;1.83;;
22040;SDS011;11184;52.444;13.578;2023-05-29T12:43:49;2.90;;;1.98;;
22040;SDS011;11184;52.444;13.578;2023-05-29T12:46:42;6.82;;;2.65;;
22040;SDS011;11184;52.444;13.578;2023-05-29T12:49:27;1.95;;;1.40;;
22040;SDS011;11184;52.444;13.578;2023-05-29T12:52:13;3.78;;;1.67;;
22040;SDS011;11184;52.444;13.578;2023-05-29T12:54:59;4.93;;;1.90;;
22040;SDS011;11184;52.444;13.578;2023-05-29T12:57:44;4.43;;;2.25;;
22040;SDS011;11184;52.444;13.578;2023-05-29T13:00:30;2.20;;;1.25;;
22040;SDS011;11184;52.444;13.578;2023-05-29T13:03:15;5.00;;;2.63;;
22040;SDS011;11184;52.444;13.578;2023-05-29T13:06:00;3.95;;;1.92;;
22040;SDS011;11184;52.444;13.578;2023-05-29T13:08:44;4.28;;;2.03;;
22040;SDS011;11184;52.444;13.578;2023-05-29T13:11:29;3.97;;;2.08;;
22040;SDS011;11184;52.444;13.578;2023-05-29T13:14:13;3.88;;;1.77;;
22040;SDS011;11184;52.444;13.578;2023-05-29T13:16:58;7.13;;;2.17;;
22040;SDS011;11184;52.444;13.578;2023-05-29T13:19:43;2.10;;;1.80;;
22040;SDS011;11184;52.444;13.578;2023-05-29T13:22:28;2.45;;;1.50;;
22040;SDS011;11184;52.444;13.578;2023-05-29T13:25:15;3.05;;;1.70;;
22040;SDS011;11184;52.444;13.578;2023-05-29T13:28:00;3.38;;;2.20;;
22040;SDS011;11184;52.444;13.578;2023-05-29T13:30:45;4.93;;;1.98;;
22040;SDS011;11184;52.444;13.578;2023-05-29T13:33:29;3.70;;;2.03;;
22040;SDS011;11184;52.444;13.578;2023-05-29T13:36:14;2.35;;;1.55;;
22040;SDS011;11184;52.444;13.578;2023-05-29T13:38:59;3.00;;;1.75;;
22040;SDS011;11184;52.444;13.578;2023-05-29T13:41:43;5.28;;;1.98;;
22040;SDS011;11184;52.444;13.578;2023-05-29T13:44:28;6.07;;;2.78;;
22040;SDS011;11184;52.444;13.578;2023-05-29T13:47:12;3.03;;;1.45;;
22040;SDS011;11184;52.444;13.578;2023-05-29T13:49:57;2.45;;;1.88;;
22040;SDS011;11184;52.444;13.578;2023-05-29T13:52:42;3.13;;;1.67;;
22040;SDS011;11184;52.444;13.578;2023-05-29T13:55:27;7.03;;;2.33;;
22040;SDS011;11184;52.444;13.578;2023-05-29T13:58:12;2.83;;;1.60;;
22040;SDS011;11184;52.444;13.578;2023-05-29T14:00:57;3.25;;;2.40;;
22040;SDS011;11184;52.444;13.578;2023-05-29T14:03:41;4.28;;;1.73;;
22040;SDS011;11184;52.444;13.578;2023-05-29T14:06:26;4.22;;;2.42;;
22040;SDS011;11184;52.444;13.578;2023-05-29T14:09:10;2.95;;;1.83;;
22040;SDS011;11184;52.444;13.578;2023-05-29T14:11:56;3.25;;;2.20;;
22040;SDS011;11184;52.444;13.578;2023-05-29T14:14:42;5.95;;;2.53;;
22040;SDS011;11184;52.444;13.578;2023-05-29T14:17:26;3.47;;;1.88;;
22040;SDS011;11184;52.444;13.578;2023-05-29T14:20:11;4.20;;;1.98;;
22040;SDS011;11184;52.444;13.578;2023-05-29T14:22:56;2.92;;;1.60;;
22040;SDS011;11184;52.444;13.578;2023-05-29T14:25:41;5.07;;;2.20;;
22040;SDS011;11184;52.444;13.578;2023-05-29T14:28:26;4.13;;;2.17;;
22040;SDS011;11184;52.444;13.578;2023-05-29T14:31:10;5.38;;;2.03;;
22040;SDS011;11184;52.444;13.578;2023-05-29T14:33:55;3.95;;;2.40;;
22040;SDS011;11184;52.444;13.578;2023-05-29T14:36:40;4.68;;;2.42;;
22040;SDS011;11184;52.444;13.578;2023-05-29T14:39:28;3.90;;;1.88;;
22040;SDS011;11184;52.444;13.578;2023-05-29T14:42:12;3.35;;;1.80;;
22040;SDS011;11184;52.444;13.578;2023-05-29T14:44:59;4.68;;;2.10;;
22040;SDS011;11184;52.444;13.578;2023-05-29T14:47:44;5.05;;;2.53;;
22040;SDS011;11184;52.444;13.578;2023-05-29T14:50:28;5.07;;;2.65;;
22040;SDS011;11184;52.444;13.578;2023-05-29T14:53:13;6.53;;;2.17;;
22040;SDS011;11184;52.444;13.578;2023-05-29T14:55:58;3.55;;;2.30;;
22040;SDS011;11184;52.444;13.578;2023-05-29T14:58:42;3.28;;;1.67;;
22040;SDS011;11184;52.444;13.578;2023-05-29T15:01:27;6.13;;;1.73;;
22040;SDS011;11184;52.444;13.578;2023-05-29T15:04:12;4.00;;;1.60;;
22040;SDS011;11184;52.444;13.578;2023-05-29T15:06:56;5.03;;;2.08;;
22040;SDS011;11184;52.444;13.578;2023-05-29T15:09:41;5.18;;;2.33;;
22040;SDS011;11184;52.444;13.578;2023-05-29T15:12:26;7.80;;;2.15;;
22040;SDS011;11184;52.444;13.578;2023-05-29T15:15:11;3.97;;;2.30;;
22040;SDS011;11184;52.444;13.578;2023-05-29T15:17:55;5.25;;;1.63;;
22040;SDS011;11184;52.444;13.578;2023-05-29T15:20:40;4.00;;;1.55;;
22040;SDS011;11184;52.444;13.578;2023-05-29T15:23:25;5.80;;;2.20;;
22040;SDS011;11184;52.444;13.578;2023-05-29T15:26:09;6.25;;;2.65;;
22040;SDS011;11184;52.444;13.578;2023-05-29T15:28:54;3.28;;;2.00;;
22040;SDS011;11184;52.444;13.578;2023-05-29T15:31:38;5.05;;;1.83;;
22040;SDS011;11184;52.444;13.578;2023-05-29T15:34:23;6.13;;;2.45;;
22040;SDS011;11184;52.444;13.578;2023-05-29T15:37:08;2.88;;;1.55;;
22040;SDS011;11184;52.444;13.578;2023-05-29T15:39:54;8.80;;;3.53;;
22040;SDS011;11184;52.444;13.578;2023-05-29T15:42:39;6.00;;;2.33;;
22040;SDS011;11184;52.444;13.578;2023-05-29T15:45:24;5.00;;;2.03;;
22040;SDS011;11184;52.444;13.578;2023-05-29T15:48:09;5.50;;;2.10;;
22040;SDS011;11184;52.444;13.578;2023-05-29T15:50:54;2.92;;;1.92;;
22040;SDS011;11184;52.444;13.578;2023-05-29T15:53:38;3.30;;;1.70;;
22040;SDS011;11184;52.444;13.578;2023-05-29T15:56:24;6.45;;;1.63;;
22040;SDS011;11184;52.444;13.578;2023-05-29T15:59:12;4.93;;;2.60;;
22040;SDS011;11184;52.444;13.578;2023-05-29T16:01:57;7.40;;;2.67;;
22040;SDS011;11184;52.444;13.578;2023-05-29T16:04:41;3.83;;;1.98;;
22040;SDS011;11184;52.444;13.578;2023-05-29T16:07:26;3.50;;;2.50;;
22040;SDS011;11184;52.444;13.578;2023-05-29T16:10:10;3.67;;;1.70;;
22040;SDS011;11184;52.444;13.578;2023-05-29T16:15:29;5.88;;;2.58;;
22040;SDS011;11184;52.444;13.578;2023-05-29T16:18:14;3.45;;;1.38;;
22040;SDS011;11184;52.444;13.578;2023-05-29T16:20:59;3.38;;;1.85;;
22040;SDS011;11184;52.444;13.578;2023-05-29T16:23:43;2.53;;;1.58;;
22040;SDS011;11184;52.444;13.578;2023-05-29T16:26:28;4.60;;;1.67;;
22040;SDS011;11184;52.444;13.578;2023-05-29T16:29:14;5.25;;;1.63;;
22040;SDS011;11184;52.444;13.578;2023-05-29T16:31:59;6.07;;;2.15;;
22040;SDS011;11184;52.444;13.578;2023-05-29T16:34:44;5.10;;;1.83;;
22040;SDS011;11184;52.444;13.578;2023-05-29T16:37:29;5.90;;;2.08;;